createdAt,value
2023-01-17T00:01:34.158Z,24.38
2023-01-17T00:04:20.107Z,24.65
2023-01-17T00:07:05.251Z,22.50
2023-01-17T00:09:50.607Z,23.23
2023-01-17T00:12:17.614Z,26.80
2023-01-17T00:14:44.467Z,27.13
2023-01-17T00:17:11.199Z,29.55
2023-01-17T00:19:56.381Z,25.73
2023-01-17T00:22:47.072Z,29.05
2023-01-17T00:25:51.614Z,29.45
2023-01-17T00:28:18.952Z,26.10
2023-01-17T00:30:46.440Z,24.35
2023-01-17T00:33:13.486Z,24.58
2023-01-17T00:35:40.424Z,25.15
2023-01-17T00:38:15.593Z,25.92
2023-01-17T00:40:44.330Z,25.05
2023-01-17T00:43:31.313Z,14.60
2023-01-17T00:46:16.831Z,19.42
2023-01-17T00:49:02.551Z,21.05
2023-01-17T00:51:49.400Z,21.27
2023-01-17T00:54:35.525Z,20.45
2023-01-17T00:57:21.819Z,19.20
2023-01-17T01:00:07.307Z,20.80
2023-01-17T01:02:53.072Z,18.75
2023-01-17T01:05:38.365Z,22.88
2023-01-17T01:08:35.303Z,17.13
2023-01-17T01:11:24.115Z,16.17
2023-01-17T01:14:09.613Z,12.52
2023-01-17T01:16:54.934Z,11.98
2023-01-17T01:19:40.384Z,16.35
2023-01-17T01:22:25.740Z,14.82
2023-01-17T01:25:11.234Z,15.80
2023-01-17T01:27:56.528Z,17.83
2023-01-17T01:30:41.748Z,12.93
2023-01-17T01:33:19.880Z,13.88
2023-01-17T01:35:54.233Z,14.13
2023-01-17T01:38:23.526Z,16.30
2023-01-17T01:40:55.297Z,14.90
2023-01-17T01:43:48.725Z,17.58
2023-01-17T01:46:39.467Z,13.95
2023-01-17T01:49:17.496Z,15.48
2023-01-17T01:51:49.685Z,13.95
2023-01-17T01:54:34.971Z,16.58
2023-01-17T01:57:04.981Z,16.42
2023-01-17T01:59:34.058Z,12.05
2023-01-17T02:02:01.466Z,13.65
2023-01-17T02:04:28.812Z,13.32
2023-01-17T02:07:13.864Z,14.18
2023-01-17T02:09:41.057Z,12.82
2023-01-17T02:14:35.225Z,10.05
2023-01-17T02:17:34.087Z,12.77
2023-01-17T02:20:34.841Z,13.63
2023-01-17T02:23:01.649Z,10.38
2023-01-17T02:26:07.115Z,9.75
2023-01-17T02:28:46.180Z,9.15
2023-01-17T02:31:49.261Z,13.77
2023-01-17T02:34:32.161Z,10.82
2023-01-17T02:37:12.091Z,7.97
2023-01-17T02:39:48.962Z,10.68
2023-01-17T02:42:19.406Z,10.67
2023-01-17T02:44:46.153Z,10.77
2023-01-17T02:47:23.387Z,12.80
2023-01-17T02:49:53.431Z,11.65
2023-01-17T02:52:49.363Z,11.07
2023-01-17T02:55:25.100Z,13.30
2023-01-17T02:58:00.678Z,15.98
2023-01-17T03:00:38.166Z,13.15
2023-01-17T03:03:30.656Z,16.38
2023-01-17T03:06:13.517Z,12.38
2023-01-17T03:08:43.671Z,11.77
2023-01-17T03:11:11.863Z,15.00
2023-01-17T03:13:38.894Z,18.38
2023-01-17T03:16:12.721Z,16.02
2023-01-17T03:18:39.599Z,17.83
2023-01-17T03:21:06.381Z,20.00
2023-01-17T03:23:33.082Z,22.50
2023-01-17T03:25:59.899Z,20.27
2023-01-17T03:28:26.580Z,21.50
2023-01-17T03:30:53.440Z,21.90
2023-01-17T03:33:20.315Z,20.23
2023-01-17T03:35:48.107Z,22.10
2023-01-17T03:38:15.315Z,23.23
2023-01-17T03:43:08.779Z,21.30
2023-01-17T03:45:35.582Z,20.90
2023-01-17T03:48:02.343Z,23.08
2023-01-17T03:50:29.213Z,20.75
2023-01-17T03:52:55.921Z,20.75
2023-01-17T03:55:22.736Z,19.77
2023-01-17T03:57:49.454Z,22.33
2023-01-17T04:00:17.135Z,22.85
2023-01-17T04:02:44.003Z,23.73
2023-01-17T04:05:10.947Z,24.60
2023-01-17T04:07:37.675Z,33.22
2023-01-17T04:10:05.145Z,43.47
2023-01-17T04:12:31.966Z,29.52
2023-01-17T04:14:58.704Z,31.90
2023-01-17T04:17:25.570Z,30.67
2023-01-17T04:19:52.625Z,22.42
2023-01-17T04:22:19.485Z,31.85
2023-01-17T04:24:46.221Z,28.33
2023-01-17T04:27:14.461Z,24.42
2023-01-17T04:29:41.390Z,28.75
2023-01-17T04:32:08.155Z,27.15
2023-01-17T04:34:34.865Z,28.17
2023-01-17T04:37:01.606Z,27.58
2023-01-17T04:39:30.525Z,26.38
2023-01-17T04:41:57.343Z,24.48
2023-01-17T04:44:24.098Z,25.05
2023-01-17T04:46:50.947Z,22.75
2023-01-17T04:49:17.649Z,22.65
2023-01-17T04:51:44.541Z,30.05
2023-01-17T04:54:11.245Z,28.83
2023-01-17T04:56:38.033Z,27.27
2023-01-17T04:59:04.978Z,33.88
2023-01-17T05:01:31.811Z,29.65
2023-01-17T05:03:58.738Z,25.73
2023-01-17T05:06:25.662Z,61.35
2023-01-17T05:08:52.493Z,47.25
2023-01-17T05:11:19.256Z,22.60
2023-01-17T05:13:48.123Z,26.10
2023-01-17T05:16:18.478Z,25.40
2023-01-17T05:18:45.285Z,26.33
2023-01-17T05:21:11.996Z,24.02
2023-01-17T05:23:40.667Z,24.33
2023-01-17T05:26:07.417Z,23.67
2023-01-17T05:28:34.183Z,24.95
2023-01-17T05:31:00.992Z,86.13
2023-01-17T05:33:27.818Z,26.88
2023-01-17T05:35:54.673Z,31.40
2023-01-17T05:38:22.617Z,29.48
2023-01-17T05:40:50.012Z,24.77
2023-01-17T05:43:16.985Z,22.35
2023-01-17T05:45:43.690Z,24.23
2023-01-17T05:48:10.594Z,24.05
2023-01-17T05:50:38.290Z,26.23
2023-01-17T05:53:06.766Z,24.48
2023-01-17T05:55:40.782Z,23.98
2023-01-17T05:58:12.800Z,25.80
2023-01-17T06:00:39.772Z,25.52
2023-01-17T06:03:06.491Z,20.15
2023-01-17T06:05:33.779Z,26.02
2023-01-17T06:10:28.324Z,20.05
2023-01-17T06:13:03.500Z,15.68
2023-01-17T06:15:30.246Z,17.13
2023-01-17T06:17:57.035Z,18.58
2023-01-17T06:20:23.907Z,22.10
2023-01-17T06:22:50.609Z,21.00
2023-01-17T06:25:17.433Z,16.35
2023-01-17T06:27:44.315Z,17.58
2023-01-17T06:30:11.585Z,17.80
2023-01-17T06:32:38.314Z,16.08
2023-01-17T06:35:05.332Z,26.30
2023-01-17T06:37:32.113Z,27.23
2023-01-17T06:39:58.878Z,24.02
2023-01-17T06:42:25.658Z,26.65
2023-01-17T06:44:52.363Z,26.35
2023-01-17T06:47:19.133Z,22.83
2023-01-17T06:49:45.861Z,23.90
2023-01-17T06:52:12.574Z,25.10
2023-01-17T06:54:39.302Z,23.55
2023-01-17T06:57:06.048Z,24.10
2023-01-17T06:59:32.809Z,22.73
2023-01-17T07:01:59.544Z,25.17
2023-01-17T07:04:26.275Z,22.95
2023-01-17T07:06:52.984Z,24.08
2023-01-17T07:09:19.809Z,19.95
2023-01-17T07:11:46.633Z,14.68
2023-01-17T07:14:14.583Z,16.50
2023-01-17T07:16:45.380Z,18.38
2023-01-17T07:19:12.493Z,39.75
2023-01-17T07:21:39.313Z,60.15
2023-01-17T07:24:06.913Z,19.95
2023-01-17T07:26:33.866Z,17.85
2023-01-17T07:29:00.757Z,21.73
2023-01-17T07:31:27.568Z,37.90
2023-01-17T07:33:54.435Z,14.88
2023-01-17T07:36:21.164Z,15.48
2023-01-17T07:38:47.959Z,17.00
2023-01-17T07:41:14.676Z,17.35
2023-01-17T07:43:41.384Z,16.02
2023-01-17T07:46:08.183Z,15.25
2023-01-17T07:48:35.244Z,17.73
2023-01-17T07:51:02.105Z,15.77
2023-01-17T07:53:32.578Z,15.75
2023-01-17T07:56:05.200Z,17.83
2023-01-17T07:58:33.219Z,23.70
2023-01-17T08:01:08.862Z,16.15
2023-01-17T08:03:39.850Z,16.52
2023-01-17T08:06:15.543Z,14.63
2023-01-17T08:08:42.307Z,16.02
2023-01-17T08:11:08.991Z,17.02
2023-01-17T08:13:35.729Z,16.65
2023-01-17T08:16:03.447Z,17.50
2023-01-17T08:18:30.738Z,17.77
2023-01-17T08:20:57.505Z,51.95
2023-01-17T08:23:24.274Z,27.88
2023-01-17T08:25:51.018Z,21.08
2023-01-17T08:28:19.755Z,15.60
2023-01-17T08:30:46.486Z,16.50
2023-01-17T08:33:13.210Z,16.60
2023-01-17T08:35:40.666Z,14.38
2023-01-17T08:38:07.369Z,14.82
2023-01-17T08:40:34.061Z,14.07
2023-01-17T08:43:01.300Z,15.13
2023-01-17T08:45:29.099Z,14.23
2023-01-17T08:47:57.849Z,13.05
2023-01-17T08:50:26.083Z,15.80
2023-01-17T08:53:00.846Z,13.60
2023-01-17T08:55:27.949Z,13.90
2023-01-17T08:57:56.028Z,14.45
2023-01-17T09:00:22.971Z,13.95
2023-01-17T09:02:53.238Z,13.35
2023-01-17T09:05:20.119Z,12.75
2023-01-17T09:07:46.857Z,13.65
2023-01-17T09:10:13.754Z,13.27
2023-01-17T09:12:40.533Z,13.60
2023-01-17T09:15:07.670Z,12.65
2023-01-17T09:17:34.432Z,15.05
2023-01-17T09:20:01.193Z,15.73
2023-01-17T09:22:28.022Z,15.18
2023-01-17T09:24:54.753Z,13.80
2023-01-17T09:27:21.543Z,12.57
2023-01-17T09:29:48.290Z,15.23
2023-01-17T09:32:17.144Z,13.43
2023-01-17T09:34:44.409Z,12.77
2023-01-17T09:39:37.783Z,13.48
2023-01-17T09:42:32.158Z,13.60
2023-01-17T09:44:59.617Z,15.38
2023-01-17T09:47:43.634Z,15.02
2023-01-17T09:50:16.487Z,15.50
2023-01-17T09:52:43.674Z,14.38
2023-01-17T09:58:00.262Z,15.23
2023-01-17T10:00:42.085Z,18.30
2023-01-17T10:03:28.893Z,18.98
2023-01-17T10:06:03.036Z,19.63
2023-01-17T10:09:08.197Z,16.85
2023-01-17T10:11:53.187Z,15.55
2023-01-17T10:14:33.152Z,16.55
2023-01-17T10:17:36.442Z,17.90
2023-01-17T10:20:34.019Z,16.30
2023-01-17T10:23:30.491Z,16.58
2023-01-17T10:26:02.430Z,16.67
2023-01-17T10:28:46.835Z,17.73
2023-01-17T10:31:23.679Z,16.33
2023-01-17T10:33:56.197Z,18.07
2023-01-17T10:36:26.029Z,15.73
2023-01-17T10:38:59.314Z,16.60
2023-01-17T10:41:46.393Z,17.63
2023-01-17T10:44:28.172Z,18.52
2023-01-17T10:46:58.554Z,18.27
2023-01-17T10:49:28.057Z,15.05
2023-01-17T10:52:02.222Z,17.75
2023-01-17T10:54:47.843Z,13.30
2023-01-17T10:57:28.142Z,17.95
2023-01-17T10:59:59.825Z,18.00
2023-01-17T11:02:35.851Z,19.25
2023-01-17T11:05:11.822Z,16.70
2023-01-17T11:07:40.133Z,16.90
2023-01-17T11:10:35.601Z,15.27
2023-01-17T11:13:06.071Z,16.65
2023-01-17T11:15:39.568Z,17.25
2023-01-17T11:18:18.851Z,18.75
2023-01-17T11:20:46.538Z,22.75
2023-01-17T11:23:54.794Z,24.95
2023-01-17T11:26:25.019Z,24.48
2023-01-17T11:28:54.882Z,24.40
2023-01-17T11:31:26.048Z,21.52
2023-01-17T11:34:08.082Z,21.25
2023-01-17T11:36:35.123Z,20.77
2023-01-17T11:39:21.101Z,23.98
2023-01-17T11:41:48.317Z,19.13
2023-01-17T11:46:48.147Z,16.48
2023-01-17T11:49:25.466Z,15.57
2023-01-17T11:51:56.410Z,16.35
2023-01-17T11:54:29.431Z,15.70
2023-01-17T11:57:02.793Z,15.65
2023-01-17T11:59:42.472Z,14.70
2023-01-17T12:02:31.950Z,14.25
2023-01-17T12:05:01.754Z,15.95
2023-01-17T12:07:28.528Z,13.60
2023-01-17T12:10:19.357Z,16.42
2023-01-17T12:13:22.978Z,15.43
2023-01-17T12:16:00.392Z,16.08
2023-01-17T12:18:44.671Z,16.45
2023-01-17T12:21:28.678Z,16.67
2023-01-17T12:24:01.531Z,16.23
2023-01-17T12:26:42.408Z,17.10
2023-01-17T12:29:43.072Z,16.23
2023-01-17T12:32:18.704Z,15.82
2023-01-17T12:35:24.274Z,17.00
2023-01-17T12:38:14.009Z,17.08
2023-01-17T12:40:53.598Z,17.13
2023-01-17T12:43:39.517Z,15.70
2023-01-17T12:46:14.804Z,15.70
2023-01-17T12:48:42.190Z,18.02
2023-01-17T12:51:17.015Z,21.02
2023-01-17T12:53:57.452Z,18.77
2023-01-17T12:56:46.412Z,18.23
2023-01-17T12:59:15.941Z,18.10
2023-01-17T13:01:57.344Z,19.30
2023-01-17T13:04:30.202Z,10.48
2023-01-17T13:07:12.592Z,10.75
2023-01-17T13:09:51.346Z,9.35
2023-01-17T13:12:21.195Z,7.57
2023-01-17T13:14:48.018Z,8.95
2023-01-17T13:17:34.979Z,8.60
2023-01-17T13:20:07.731Z,11.38
2023-01-17T13:22:37.094Z,10.73
2023-01-17T13:25:21.291Z,13.10
2023-01-17T13:28:06.681Z,13.45
2023-01-17T13:31:10.262Z,12.95
2023-01-17T13:34:07.798Z,15.20
2023-01-17T13:36:46.709Z,12.68
2023-01-17T13:39:25.236Z,15.23
2023-01-17T13:42:10.564Z,13.60
2023-01-17T13:44:37.494Z,9.48
2023-01-17T13:47:26.128Z,10.63
2023-01-17T13:49:56.472Z,9.85
2023-01-17T13:52:26.303Z,11.32
2023-01-17T13:54:55.496Z,8.75
2023-01-17T13:57:30.271Z,13.30
2023-01-17T14:00:24.117Z,17.27
2023-01-17T14:02:52.617Z,20.48
2023-01-17T14:05:32.409Z,18.90
2023-01-17T14:08:06.295Z,16.70
2023-01-17T14:10:41.727Z,24.50
2023-01-17T14:13:37.836Z,33.22
2023-01-17T14:16:25.782Z,26.85
2023-01-17T14:18:54.042Z,21.40
2023-01-17T14:21:32.197Z,23.73
2023-01-17T14:23:59.418Z,23.63
2023-01-17T14:29:40.097Z,17.25
2023-01-17T14:32:11.429Z,24.40
2023-01-17T14:34:38.274Z,23.58
2023-01-17T14:37:40.281Z,16.48
2023-01-17T14:40:30.713Z,20.20
2023-01-17T14:43:07.632Z,15.88
2023-01-17T14:45:35.932Z,14.67
2023-01-17T14:48:06.036Z,16.35
2023-01-17T14:50:37.800Z,16.65
2023-01-17T14:53:13.492Z,18.60
2023-01-17T14:55:50.742Z,28.08
2023-01-17T14:58:30.516Z,27.10
2023-01-17T15:01:02.165Z,35.13
2023-01-17T15:03:33.209Z,28.20
2023-01-17T15:06:13.611Z,28.80
2023-01-17T15:08:40.489Z,22.42
2023-01-17T15:11:15.490Z,23.35
2023-01-17T15:13:46.085Z,18.45
2023-01-17T15:16:34.120Z,26.67
2023-01-17T15:19:01.808Z,22.85
2023-01-17T15:21:31.794Z,13.60
2023-01-17T15:24:13.158Z,16.70
2023-01-17T15:26:43.348Z,23.15
2023-01-17T15:29:22.253Z,16.42
2023-01-17T15:31:58.265Z,17.25
2023-01-17T15:34:36.292Z,15.77
2023-01-17T15:37:07.952Z,10.25
2023-01-17T15:39:37.638Z,15.63
2023-01-17T15:42:19.758Z,13.25
2023-01-17T15:44:51.382Z,14.88
2023-01-17T15:47:40.953Z,15.65
2023-01-17T15:50:24.655Z,13.95
2023-01-17T15:52:53.302Z,10.73
2023-01-17T15:55:28.821Z,18.98
2023-01-17T15:57:55.853Z,18.80
2023-01-17T16:00:32.458Z,11.20
2023-01-17T16:02:59.860Z,10.45
2023-01-17T16:05:31.057Z,13.13
2023-01-17T16:08:04.401Z,15.18
2023-01-17T16:10:37.149Z,17.63
2023-01-17T16:13:06.295Z,17.33
2023-01-17T16:15:35.299Z,18.83
2023-01-17T16:18:03.862Z,20.17
2023-01-17T16:20:41.717Z,18.63
2023-01-17T16:25:36.319Z,19.05
2023-01-17T16:28:03.589Z,12.98
2023-01-17T16:32:57.618Z,9.85
2023-01-17T16:38:15.456Z,12.40
2023-01-17T16:40:45.815Z,11.52
2023-01-17T16:43:14.572Z,10.75
2023-01-17T16:45:43.235Z,7.45
2023-01-17T16:48:12.422Z,8.40
2023-01-17T16:50:50.767Z,9.48
2023-01-17T16:53:24.540Z,10.07
2023-01-17T16:55:55.187Z,10.00
2023-01-17T16:58:22.460Z,11.48
2023-01-17T17:00:49.275Z,10.40
2023-01-17T17:03:20.874Z,10.43
2023-01-17T17:05:59.705Z,10.63
2023-01-17T17:08:29.133Z,9.60
2023-01-17T17:11:06.115Z,10.18
2023-01-17T17:13:36.023Z,9.18
2023-01-17T17:16:08.526Z,10.95
2023-01-17T17:18:36.802Z,11.85
2023-01-17T17:21:04.525Z,9.75
2023-01-17T17:23:35.646Z,14.05
2023-01-17T17:26:02.431Z,13.52
2023-01-17T17:28:29.262Z,11.05
2023-01-17T17:31:07.197Z,13.13
2023-01-17T17:33:35.876Z,11.98
2023-01-17T17:36:05.063Z,12.30
2023-01-17T17:38:35.155Z,12.95
2023-01-17T17:41:10.242Z,13.35
2023-01-17T17:43:42.658Z,8.93
2023-01-17T17:46:09.635Z,11.57
2023-01-17T17:48:36.769Z,10.02
2023-01-17T17:51:04.368Z,11.55
2023-01-17T17:53:31.712Z,11.88
2023-01-17T17:56:06.558Z,11.43
2023-01-17T17:58:35.056Z,14.18
2023-01-17T18:01:03.360Z,9.98
2023-01-17T18:03:31.177Z,8.95
2023-01-17T18:06:02.988Z,11.18
2023-01-17T18:08:32.578Z,11.48
2023-01-17T18:11:11.427Z,14.82
2023-01-17T18:13:38.993Z,11.57
2023-01-17T18:16:13.039Z,9.75
2023-01-17T18:18:44.343Z,12.10
2023-01-17T18:21:14.141Z,17.70
2023-01-17T18:23:43.401Z,13.32
2023-01-17T18:26:19.301Z,11.50
2023-01-17T18:28:46.060Z,10.02
2023-01-17T18:31:13.375Z,13.32
2023-01-17T18:33:40.181Z,13.02
2023-01-17T18:36:09.285Z,12.20
2023-01-17T18:38:41.845Z,14.48
2023-01-17T18:41:11.592Z,13.90
2023-01-17T18:43:39.045Z,15.55
2023-01-17T18:46:06.712Z,12.48
2023-01-17T18:48:33.940Z,11.23
2023-01-17T18:53:30.639Z,10.20
2023-01-17T18:56:00.032Z,12.18
2023-01-17T18:58:29.208Z,13.75
2023-01-17T19:01:07.080Z,13.65
2023-01-17T19:03:34.309Z,12.20
2023-01-17T19:06:02.103Z,10.90
2023-01-17T19:08:30.561Z,18.08
2023-01-17T19:10:57.649Z,14.43
2023-01-17T19:13:24.657Z,20.63
2023-01-17T19:15:51.792Z,12.60
2023-01-17T19:18:19.016Z,15.25
2023-01-17T19:23:13.282Z,14.63
2023-01-17T19:25:42.570Z,16.20
2023-01-17T19:28:10.676Z,18.88
2023-01-17T19:30:40.107Z,23.75
2023-01-17T19:33:09.334Z,13.93
2023-01-17T19:35:37.982Z,19.38
2023-01-17T19:38:05.036Z,23.42
2023-01-17T19:40:32.355Z,19.42
2023-01-17T19:42:59.366Z,23.92
2023-01-17T19:45:26.245Z,20.85
2023-01-17T19:47:53.050Z,17.02
2023-01-17T19:50:20.047Z,13.20
2023-01-17T19:52:46.805Z,13.65
2023-01-17T19:55:16.218Z,15.23
2023-01-17T19:57:43.090Z,13.52
2023-01-17T20:00:13.224Z,15.60
2023-01-17T20:02:40.446Z,18.27
2023-01-17T20:05:07.610Z,15.10
2023-01-17T20:07:34.762Z,19.00
2023-01-17T20:12:28.608Z,14.10
2023-01-17T20:14:55.543Z,13.73
2023-01-17T20:17:22.732Z,14.68
2023-01-17T20:22:16.378Z,11.27
2023-01-17T20:24:43.182Z,13.05
2023-01-17T20:27:10.533Z,14.80
2023-01-17T20:29:40.898Z,16.05
2023-01-17T20:32:08.262Z,16.30
2023-01-17T20:34:35.758Z,12.65
2023-01-17T20:37:02.807Z,12.30
2023-01-17T20:39:29.964Z,19.35
2023-01-17T20:44:24.883Z,14.13
2023-01-17T20:46:52.200Z,15.80
2023-01-17T20:51:47.937Z,15.10
2023-01-17T20:54:19.336Z,12.85
2023-01-17T20:56:47.802Z,17.23
2023-01-17T20:59:17.101Z,17.08
2023-01-17T21:01:45.030Z,17.95
2023-01-17T21:04:13.152Z,13.13
2023-01-17T21:06:41.657Z,15.55
2023-01-17T21:09:12.283Z,16.70
2023-01-17T21:11:39.453Z,13.27
2023-01-17T21:14:07.281Z,19.75
2023-01-17T21:16:35.559Z,17.20
2023-01-17T21:19:02.984Z,17.75
2023-01-17T21:21:30.212Z,15.90
2023-01-17T21:24:03.114Z,16.80
2023-01-17T21:26:30.324Z,17.77
2023-01-17T21:29:00.266Z,18.55
2023-01-17T21:31:30.153Z,17.52
2023-01-17T21:33:59.260Z,17.77
2023-01-17T21:36:33.244Z,22.33
2023-01-17T21:39:04.947Z,18.92
2023-01-17T21:41:36.909Z,17.80
2023-01-17T21:44:11.799Z,13.30
2023-01-17T21:46:39.953Z,17.63
2023-01-17T21:49:11.928Z,16.42
2023-01-17T21:51:54.840Z,18.20
2023-01-17T21:54:45.663Z,16.75
2023-01-17T21:57:33.187Z,20.83
2023-01-17T22:00:00.084Z,19.63
2023-01-17T22:02:27.043Z,19.08
2023-01-17T22:04:54.852Z,19.98
2023-01-17T22:07:22.273Z,25.45
2023-01-17T22:09:49.113Z,18.75
2023-01-17T22:12:16.049Z,19.08
2023-01-17T22:14:42.804Z,19.30
2023-01-17T22:17:09.928Z,18.80
2023-01-17T22:19:36.696Z,21.23
2023-01-17T22:22:04.029Z,20.77
2023-01-17T22:24:30.845Z,18.50
2023-01-17T22:26:57.747Z,22.17
2023-01-17T22:29:24.510Z,21.42
2023-01-17T22:31:51.308Z,22.20
2023-01-17T22:34:19.115Z,22.73
2023-01-17T22:36:46.057Z,23.50
2023-01-17T22:39:12.872Z,20.73
2023-01-17T22:41:39.670Z,20.42
2023-01-17T22:44:07.591Z,22.77
2023-01-17T22:46:37.277Z,20.40
2023-01-17T22:49:06.040Z,22.30
2023-01-17T22:51:32.864Z,22.38
2023-01-17T22:54:00.555Z,22.27
2023-01-17T22:56:33.094Z,21.80
2023-01-17T22:59:01.012Z,20.95
2023-01-17T23:01:33.013Z,21.58
2023-01-17T23:04:02.287Z,21.45
2023-01-17T23:06:31.677Z,23.15
2023-01-17T23:09:02.508Z,21.05
2023-01-17T23:11:42.317Z,21.73
2023-01-17T23:14:24.307Z,22.80
2023-01-17T23:17:15.687Z,19.63
2023-01-17T23:19:53.089Z,18.13
2023-01-17T23:22:23.655Z,13.70
2023-01-17T23:25:11.144Z,15.05
2023-01-17T23:27:59.908Z,15.10
2023-01-17T23:30:37.518Z,14.32
2023-01-17T23:33:07.317Z,14.88
2023-01-17T23:35:41.646Z,15.32
2023-01-17T23:38:30.731Z,17.02
2023-01-17T23:41:27.419Z,15.88
2023-01-17T23:43:56.660Z,16.70
2023-01-17T23:46:25.699Z,9.68
2023-01-17T23:48:53.183Z,14.63
2023-01-17T23:51:20.104Z,16.73
2023-01-17T23:53:47.095Z,19.23
2023-01-17T23:56:18.242Z,20.33
2023-01-17T23:58:45.270Z,22.13
